createdAt,value
2019-03-24T00:00:02.697Z,2.9
2019-03-24T00:01:04.089Z,2.9
2019-03-24T00:02:03.350Z,2.9
2019-03-24T00:03:03.629Z,2.8
2019-03-24T00:04:03.319Z,2.9
2019-03-24T00:05:03.662Z,2.8
2019-03-24T00:06:03.468Z,2.6
2019-03-24T00:07:03.544Z,2.6
2019-03-24T00:08:03.373Z,2.8
2019-03-24T00:09:03.655Z,2.8
2019-03-24T00:10:03.430Z,2.8
2019-03-24T00:11:03.441Z,2.9
2019-03-24T00:12:03.200Z,2.9
2019-03-24T00:13:03.247Z,3
2019-03-24T00:14:03.282Z,3.1
2019-03-24T00:15:03.411Z,3
2019-03-24T00:16:03.156Z,2.9
2019-03-24T00:17:03.249Z,2.9
2019-03-24T00:18:02.876Z,2.8
2019-03-24T00:19:03.200Z,2.7
2019-03-24T00:20:02.906Z,2.7
2019-03-24T00:21:03.270Z,2.8
2019-03-24T00:22:03.241Z,2.8
2019-03-24T00:23:02.954Z,2.9
2019-03-24T00:24:03.244Z,2.8
2019-03-24T00:25:02.891Z,2.9
2019-03-24T00:26:03.024Z,2.9
2019-03-24T00:27:03.314Z,2.9
2019-03-24T00:28:03.074Z,2.9
2019-03-24T00:29:02.996Z,2.8
2019-03-24T00:30:02.822Z,2.8
2019-03-24T00:31:03.301Z,2.7
2019-03-24T00:32:03.006Z,2.5
2019-03-24T00:33:03.229Z,2.6
2019-03-24T00:34:03.140Z,2.7
2019-03-24T00:35:03.272Z,2.7
2019-03-24T00:36:03.048Z,2.8
2019-03-24T00:37:03.338Z,2.8
2019-03-24T00:38:03.256Z,2.8
2019-03-24T00:39:03.024Z,2.8
2019-03-24T00:40:03.237Z,2.8
2019-03-24T00:41:02.944Z,2.8
2019-03-24T00:42:02.941Z,2.9
2019-03-24T00:43:03.075Z,2.8
2019-03-24T00:44:03.048Z,2.9
2019-03-24T00:45:03.116Z,2.8
2019-03-24T00:46:02.800Z,2.9
2019-03-24T00:47:02.924Z,2.9
2019-03-24T00:48:03.364Z,2.9
2019-03-24T00:49:03.196Z,2.8
2019-03-24T00:50:03.210Z,2.8
2019-03-24T00:51:03.210Z,2.8
2019-03-24T00:52:03.243Z,2.8
2019-03-24T00:53:02.770Z,2.8
2019-03-24T00:54:03.045Z,2.6
2019-03-24T00:55:03.174Z,2.6
2019-03-24T00:56:03.001Z,2.8
2019-03-24T00:57:02.894Z,2.7
2019-03-24T00:58:03.050Z,2.6
2019-03-24T00:59:03.109Z,2.6
2019-03-24T01:00:02.987Z,2.7
2019-03-24T01:01:03.255Z,2.6
2019-03-24T01:02:03.145Z,2.6
2019-03-24T01:03:03.081Z,2.4
2019-03-24T01:04:03.075Z,2.4
2019-03-24T01:05:03.165Z,2.4
2019-03-24T01:06:03.106Z,2.4
2019-03-24T01:07:03.117Z,2.4
2019-03-24T01:08:03.058Z,2.4
2019-03-24T01:09:02.880Z,2.4
2019-03-24T01:10:03.009Z,2.6
2019-03-24T01:11:02.956Z,2.7
2019-03-24T01:12:03.020Z,2.7
2019-03-24T01:13:02.782Z,2.8
2019-03-24T01:14:02.835Z,2.9
2019-03-24T01:15:02.996Z,2.5
2019-03-24T01:16:02.958Z,2.5
2019-03-24T01:17:02.866Z,2.5
2019-03-24T01:18:02.895Z,2.4
2019-03-24T01:19:02.926Z,2.4
2019-03-24T01:20:03.805Z,2.4
2019-03-24T01:21:02.982Z,2.4
2019-03-24T01:22:03.580Z,1.9
2019-03-24T01:23:02.991Z,2
2019-03-24T01:24:02.794Z,2
2019-03-24T01:25:02.989Z,2
2019-03-24T01:26:02.642Z,2.1
2019-03-24T01:27:03.693Z,2.2
2019-03-24T01:28:02.827Z,2.3
2019-03-24T01:29:02.859Z,2.3
2019-03-24T01:30:03.725Z,2.4
2019-03-24T01:31:02.900Z,2.5
2019-03-24T01:32:03.032Z,2.6
2019-03-24T01:33:03.819Z,2.7
2019-03-24T01:34:03.734Z,2.7
2019-03-24T01:35:02.877Z,2.7
2019-03-24T01:36:03.016Z,2.7
2019-03-24T01:37:03.556Z,2.7
2019-03-24T01:38:03.690Z,2.6
2019-03-24T01:39:03.691Z,2.3
2019-03-24T01:40:03.673Z,2
2019-03-24T01:41:03.735Z,1.9
2019-03-24T01:42:03.427Z,2
2019-03-24T01:43:04.105Z,1.8
2019-03-24T01:44:03.269Z,1.5
2019-03-24T01:45:03.553Z,1.6
2019-03-24T01:46:03.710Z,1.6
2019-03-24T01:47:02.820Z,1.9
2019-03-24T01:48:03.462Z,1.9
2019-03-24T01:49:03.483Z,1.8
2019-03-24T01:50:03.304Z,1.9
2019-03-24T01:51:03.280Z,1.9
2019-03-24T01:52:03.664Z,1.9
2019-03-24T01:53:03.375Z,1.9
2019-03-24T01:54:03.593Z,1.9
2019-03-24T01:55:03.375Z,1.9
2019-03-24T01:56:03.683Z,1.7
2019-03-24T01:57:03.712Z,1.7
2019-03-24T01:58:03.659Z,1.7
2019-03-24T01:59:03.666Z,1.8
2019-03-24T02:00:03.650Z,1.8
2019-03-24T02:01:03.559Z,1.9
2019-03-24T02:02:03.462Z,1.9
2019-03-24T02:03:03.605Z,1.8
2019-03-24T02:04:03.483Z,1.8
2019-03-24T02:05:03.334Z,1.8
2019-03-24T02:06:03.578Z,1.6
2019-03-24T02:07:03.855Z,1.5
2019-03-24T02:08:03.744Z,1.5
2019-03-24T02:09:03.468Z,1.6
2019-03-24T02:10:03.407Z,1.6
2019-03-24T02:11:03.537Z,1.6
2019-03-24T02:12:03.461Z,1.6
2019-03-24T02:13:03.529Z,1.7
2019-03-24T02:14:03.402Z,1.6
2019-03-24T02:15:03.550Z,1.5
2019-03-24T02:16:09.937Z,1.3
2019-03-24T02:17:03.487Z,1.3
2019-03-24T02:18:03.434Z,1.1
2019-03-24T02:19:03.529Z,1.2
2019-03-24T02:20:03.742Z,1.4
2019-03-24T02:21:03.641Z,1.4
2019-03-24T02:22:03.329Z,1.6
2019-03-24T02:23:04.175Z,1.6
2019-03-24T02:24:03.426Z,1.4
2019-03-24T02:25:03.437Z,1.4
2019-03-24T02:26:03.444Z,1.4
2019-03-24T02:27:03.450Z,1.6
2019-03-24T02:28:03.378Z,1.6
2019-03-24T02:29:03.170Z,1.5
2019-03-24T02:30:03.414Z,1.4
2019-03-24T02:31:03.319Z,1.3
2019-03-24T02:32:03.238Z,1.2
2019-03-24T02:33:03.092Z,1.1
2019-03-24T02:34:03.188Z,1.1
2019-03-24T02:35:03.091Z,1.1
2019-03-24T02:36:03.280Z,1.1
2019-03-24T02:37:03.145Z,1.1
2019-03-24T02:38:03.304Z,1.2
2019-03-24T02:39:03.261Z,1.3
2019-03-24T02:40:02.858Z,1.4
2019-03-24T02:41:03.203Z,1.4
2019-03-24T02:42:03.093Z,1.6
2019-03-24T02:43:03.218Z,1.7
2019-03-24T02:44:02.868Z,1.7
2019-03-24T02:45:03.326Z,1.3
2019-03-24T02:46:03.275Z,0.9
2019-03-24T02:47:03.161Z,0.8
2019-03-24T02:48:03.128Z,0.9
2019-03-24T02:49:03.397Z,1
2019-03-24T02:50:03.194Z,1.1
2019-03-24T02:51:02.946Z,1.2
2019-03-24T02:52:03.116Z,1.2
2019-03-24T02:53:02.968Z,1.1
2019-03-24T02:54:03.177Z,1.1
2019-03-24T02:55:03.004Z,1.2
2019-03-24T02:56:03.071Z,1.2
2019-03-24T02:57:02.875Z,1.2
2019-03-24T02:58:03.106Z,1.3
2019-03-24T02:59:02.899Z,1.4
2019-03-24T03:00:02.919Z,1.4
2019-03-24T03:01:03.083Z,1.5
2019-03-24T03:02:03.259Z,1.6
2019-03-24T03:03:03.478Z,1.6
2019-03-24T03:04:03.850Z,1.6
2019-03-24T03:05:03.161Z,1.6
2019-03-24T03:06:03.693Z,1.7
2019-03-24T03:07:03.812Z,1.6
2019-03-24T03:08:03.548Z,1.7
2019-03-24T03:09:02.779Z,1.6
2019-03-24T03:10:03.534Z,1.6
2019-03-24T03:11:03.563Z,1.7
2019-03-24T03:12:03.780Z,1.7
2019-03-24T03:13:02.825Z,1.7
2019-03-24T03:14:03.870Z,1.6
2019-03-24T03:15:02.752Z,1.6
2019-03-24T03:16:02.629Z,1.6
2019-03-24T03:17:02.917Z,1.4
2019-03-24T03:18:02.924Z,1.5
2019-03-24T03:19:03.687Z,1.6
2019-03-24T03:20:03.048Z,1.6
2019-03-24T03:21:03.677Z,1.6
2019-03-24T03:22:02.985Z,1.6
2019-03-24T03:23:03.534Z,1.6
2019-03-24T03:24:03.396Z,1.6
2019-03-24T03:25:03.729Z,1.6
2019-03-24T03:26:03.702Z,1.6
2019-03-24T03:27:03.693Z,1.6
2019-03-24T03:28:03.813Z,1.6
2019-03-24T03:29:03.614Z,1.5
2019-03-24T03:30:03.396Z,1.5
2019-03-24T03:31:03.497Z,1.5
2019-03-24T03:32:03.492Z,1.4
2019-03-24T03:33:03.639Z,1.3
2019-03-24T03:34:03.558Z,1.4
2019-03-24T03:35:03.472Z,1.4
2019-03-24T03:36:03.371Z,1.5
2019-03-24T03:37:03.499Z,1.5
2019-03-24T03:38:03.147Z,1.6
2019-03-24T03:39:03.683Z,1.5
2019-03-24T03:40:03.821Z,1.5
2019-03-24T03:41:03.715Z,1.4
2019-03-24T03:42:03.597Z,1.4
2019-03-24T03:43:03.784Z,1.3
2019-03-24T03:44:03.642Z,1.3
2019-03-24T03:45:03.406Z,1.4
2019-03-24T03:46:03.437Z,1.4
2019-03-24T03:47:03.520Z,1.4
2019-03-24T03:48:03.266Z,1.4
2019-03-24T03:49:03.462Z,1.4
2019-03-24T03:50:03.529Z,1.3
2019-03-24T03:51:03.235Z,1.3
2019-03-24T03:52:03.117Z,1.3
2019-03-24T03:53:03.148Z,1.3
2019-03-24T03:54:03.344Z,1.3
2019-03-24T03:55:03.333Z,1.3
2019-03-24T03:56:03.260Z,1.3
2019-03-24T03:57:03.253Z,1.3
2019-03-24T03:58:02.982Z,1.3
2019-03-24T03:59:02.851Z,1.4
2019-03-24T04:00:04.956Z,1.4
2019-03-24T04:01:03.720Z,1.4
2019-03-24T04:02:03.069Z,1.4
2019-03-24T04:03:03.169Z,1.4
2019-03-24T04:04:03.214Z,1.4
2019-03-24T04:05:03.243Z,1.4
2019-03-24T04:06:03.086Z,1.5
2019-03-24T04:07:03.085Z,1.5
2019-03-24T04:08:03.241Z,1.5
2019-03-24T04:09:02.899Z,1.5
2019-03-24T04:10:03.341Z,1.4
2019-03-24T04:11:03.047Z,1.3
2019-03-24T04:12:03.175Z,1.3
2019-03-24T04:13:02.896Z,1.3
2019-03-24T04:14:02.998Z,1.3
2019-03-24T04:15:03.119Z,1.3
2019-03-24T04:16:03.042Z,1.2
2019-03-24T04:17:08.280Z,1.1
2019-03-24T04:18:03.137Z,1.1
2019-03-24T04:19:02.852Z,1.1
2019-03-24T04:20:03.347Z,1.1
2019-03-24T04:21:03.258Z,1.1
2019-03-24T04:22:03.476Z,1.1
2019-03-24T04:23:03.837Z,1.1
2019-03-24T04:24:03.877Z,1
2019-03-24T04:25:03.854Z,1
2019-03-24T04:26:03.521Z,0.9
2019-03-24T04:27:03.746Z,0.9
2019-03-24T04:28:02.938Z,0.9
2019-03-24T04:29:02.744Z,0.8
2019-03-24T04:30:03.380Z,0.8
2019-03-24T04:31:02.892Z,0.9
2019-03-24T04:32:03.559Z,0.9
2019-03-24T04:33:03.574Z,0.8
2019-03-24T04:34:03.598Z,0.7
2019-03-24T04:35:03.670Z,0.7
2019-03-24T04:36:03.573Z,0.7
2019-03-24T04:37:03.425Z,0.6
2019-03-24T04:38:03.713Z,0.6
2019-03-24T04:39:03.679Z,0.6
2019-03-24T04:40:03.025Z,0.6
2019-03-24T04:41:03.592Z,0.5
2019-03-24T04:42:03.671Z,0.4
2019-03-24T04:43:03.531Z,0.4
2019-03-24T04:44:03.576Z,0.4
2019-03-24T04:45:03.470Z,0.6
2019-03-24T04:46:03.632Z,0.6
2019-03-24T04:47:03.687Z,0.4
2019-03-24T04:48:03.511Z,0.5
2019-03-24T04:49:03.419Z,0.3
2019-03-24T04:50:03.533Z,0.3
2019-03-24T04:51:03.316Z,0.4
2019-03-24T04:52:03.377Z,0.4
2019-03-24T04:53:03.438Z,0.4
2019-03-24T04:54:03.162Z,0.4
2019-03-24T04:55:03.507Z,0.4
2019-03-24T04:56:03.107Z,0.4
2019-03-24T04:57:03.406Z,0.5
2019-03-24T04:58:02.972Z,0.6
2019-03-24T04:59:03.435Z,0.6
2019-03-24T05:00:03.536Z,0.8
2019-03-24T05:01:03.276Z,0.8
2019-03-24T05:02:03.196Z,0.9
2019-03-24T05:03:03.197Z,1
2019-03-24T05:04:03.000Z,1.1
2019-03-24T05:05:03.188Z,1.1
2019-03-24T05:06:03.448Z,1.2
2019-03-24T05:07:03.043Z,1.3
2019-03-24T05:08:03.288Z,1.3
2019-03-24T05:09:03.028Z,1.4
2019-03-24T05:10:03.547Z,1.3
2019-03-24T05:11:03.268Z,1.4
2019-03-24T05:12:03.303Z,1.4
2019-03-24T05:13:03.075Z,1.4
2019-03-24T05:14:03.250Z,1.4
2019-03-24T05:15:03.221Z,1.4
2019-03-24T05:16:02.866Z,1.1
2019-03-24T05:17:03.183Z,0.9
2019-03-24T05:18:03.065Z,0.8
2019-03-24T05:19:03.295Z,0.8
2019-03-24T05:20:02.887Z,0.8
2019-03-24T05:21:03.651Z,0.7
2019-03-24T05:22:02.874Z,0.7
2019-03-24T05:23:03.395Z,0.6
2019-03-24T05:24:02.931Z,0.4
2019-03-24T05:25:03.139Z,0.5
2019-03-24T05:26:02.846Z,0.4
2019-03-24T05:27:02.900Z,0.5
2019-03-24T05:28:03.725Z,0.4
2019-03-24T05:29:03.645Z,0.5
2019-03-24T05:30:03.066Z,0.5
2019-03-24T05:31:02.794Z,0.4
2019-03-24T05:32:03.592Z,0.4
2019-03-24T05:33:02.909Z,0.5
2019-03-24T05:34:02.922Z,0.5
2019-03-24T05:35:05.948Z,0.5
2019-03-24T05:36:03.728Z,0.4
2019-03-24T05:37:03.693Z,0.4
2019-03-24T05:38:02.862Z,0.6
2019-03-24T05:39:03.542Z,0.8
2019-03-24T05:40:03.529Z,0.8
2019-03-24T05:41:02.743Z,0.9
2019-03-24T05:42:03.521Z,0.9
2019-03-24T05:43:02.756Z,1
2019-03-24T05:44:03.809Z,0.9
2019-03-24T05:45:03.736Z,1
2019-03-24T05:46:03.682Z,1
2019-03-24T05:47:03.682Z,1
2019-03-24T05:48:03.636Z,1.1
2019-03-24T05:49:03.763Z,1
2019-03-24T05:50:03.482Z,1
2019-03-24T05:51:03.600Z,1.1
2019-03-24T05:52:03.572Z,1.1
2019-03-24T05:53:02.746Z,1.1
2019-03-24T05:54:02.686Z,1.1
2019-03-24T05:55:02.733Z,1.3
2019-03-24T05:56:03.694Z,1.2
2019-03-24T05:57:03.597Z,1.3
2019-03-24T05:58:03.637Z,1.2
2019-03-24T05:59:03.600Z,1.3
2019-03-24T06:00:03.648Z,1.3
2019-03-24T06:01:03.730Z,1.3
2019-03-24T06:02:03.800Z,1.5
2019-03-24T06:03:03.561Z,1.7
2019-03-24T06:04:03.473Z,1.7
2019-03-24T06:05:03.791Z,1.8
2019-03-24T06:06:03.429Z,1.8
2019-03-24T06:07:03.445Z,1.9
2019-03-24T06:08:03.768Z,1.9
2019-03-24T06:09:03.434Z,2
2019-03-24T06:10:03.610Z,2.1
2019-03-24T06:11:03.640Z,2.1
2019-03-24T06:12:03.570Z,2.3
2019-03-24T06:13:03.598Z,2.3
2019-03-24T06:14:03.589Z,2.4
2019-03-24T06:15:03.769Z,2.4
2019-03-24T06:16:03.471Z,2.4
2019-03-24T06:17:04.017Z,2.5
2019-03-24T06:18:03.316Z,2.6
2019-03-24T06:19:03.696Z,2.6
2019-03-24T06:20:03.410Z,2.7
2019-03-24T06:21:03.527Z,2.6
2019-03-24T06:22:03.386Z,2.8
2019-03-24T06:23:03.286Z,2.8
2019-03-24T06:24:03.267Z,2.8
2019-03-24T06:25:03.451Z,2.8
2019-03-24T06:26:03.387Z,2.9
2019-03-24T06:27:03.408Z,2.9
2019-03-24T06:28:03.301Z,3
2019-03-24T06:29:03.464Z,3.1
2019-03-24T06:30:03.165Z,3.1
2019-03-24T06:31:03.314Z,3.1
2019-03-24T06:32:03.266Z,3.2
2019-03-24T06:33:03.187Z,3.3
2019-03-24T06:34:03.394Z,3.3
2019-03-24T06:35:03.170Z,3.3
2019-03-24T06:36:03.184Z,3.4
2019-03-24T06:37:02.864Z,3.4
2019-03-24T06:38:03.390Z,3.4
2019-03-24T06:39:03.053Z,3.5
2019-03-24T06:40:03.255Z,3.6
2019-03-24T06:41:03.038Z,3.6
2019-03-24T06:42:03.101Z,3.6
2019-03-24T06:43:03.344Z,3.6
2019-03-24T06:44:03.002Z,3.6
2019-03-24T06:45:03.437Z,3.7
2019-03-24T06:46:02.927Z,3.8
2019-03-24T06:47:03.158Z,3.8
2019-03-24T06:48:03.029Z,3.9
2019-03-24T06:49:03.189Z,4
2019-03-24T06:50:02.891Z,4.1
2019-03-24T06:51:02.933Z,4.1
2019-03-24T06:52:02.979Z,4.2
2019-03-24T06:53:03.508Z,4.3
2019-03-24T06:54:03.594Z,4.3
2019-03-24T06:55:03.832Z,4.4
2019-03-24T06:56:03.053Z,4.4
2019-03-24T06:57:02.900Z,4.4
2019-03-24T06:58:03.050Z,4.5
2019-03-24T06:59:03.032Z,4.5
2019-03-24T07:00:03.471Z,4.6
2019-03-24T07:01:03.024Z,4.6
2019-03-24T07:02:03.692Z,4.8
2019-03-24T07:03:02.944Z,4.8
2019-03-24T07:04:03.711Z,4.9
2019-03-24T07:05:03.773Z,4.9
2019-03-24T07:06:03.631Z,4.9
2019-03-24T07:07:02.848Z,4.9
2019-03-24T07:08:03.817Z,5.1
2019-03-24T07:09:03.050Z,5.1
2019-03-24T07:10:02.972Z,5.1
2019-03-24T07:11:05.558Z,5.2
2019-03-24T07:12:03.017Z,5.2
2019-03-24T07:13:03.106Z,5.3
2019-03-24T07:14:02.581Z,5.3
2019-03-24T07:15:02.994Z,5.4
2019-03-24T07:16:02.978Z,5.5
2019-03-24T07:17:03.743Z,5.5
2019-03-24T07:18:09.076Z,5.5
2019-03-24T07:19:03.633Z,5.6
2019-03-24T07:20:02.993Z,5.7
2019-03-24T07:21:03.723Z,5.8
2019-03-24T07:22:03.737Z,5.8
2019-03-24T07:23:02.719Z,5.9
2019-03-24T07:24:03.894Z,5.9
2019-03-24T07:25:03.655Z,6
2019-03-24T07:26:03.850Z,5.9
2019-03-24T07:27:03.662Z,6.1
2019-03-24T07:28:03.692Z,6.1
2019-03-24T07:29:03.382Z,6.3
2019-03-24T07:30:03.686Z,6.4
2019-03-24T07:31:03.540Z,6.4
2019-03-24T07:32:03.560Z,6.4
2019-03-24T07:33:03.676Z,6.6
2019-03-24T07:34:03.590Z,6.6
2019-03-24T07:35:03.694Z,6.7
2019-03-24T07:36:03.609Z,6.8
2019-03-24T07:37:03.751Z,6.9
2019-03-24T07:38:02.925Z,6.9
2019-03-24T07:39:03.943Z,6.9
2019-03-24T07:40:03.023Z,7.1
2019-03-24T07:41:02.846Z,7.1
2019-03-24T07:42:05.757Z,7.2
2019-03-24T07:43:02.843Z,7.2
2019-03-24T07:44:02.871Z,7.3
2019-03-24T07:45:03.876Z,7.4
2019-03-24T07:46:03.663Z,7.5
2019-03-24T07:47:03.700Z,7.4
2019-03-24T07:48:03.475Z,7.3
2019-03-24T07:49:03.441Z,7.4
2019-03-24T07:50:03.791Z,7.6
2019-03-24T07:51:03.771Z,7.6
2019-03-24T07:52:03.698Z,7.7
2019-03-24T07:53:03.458Z,7.8
2019-03-24T07:54:03.576Z,7.9
2019-03-24T07:55:03.626Z,7.9
2019-03-24T07:56:03.481Z,8
2019-03-24T07:57:03.400Z,7.9
2019-03-24T07:58:03.378Z,8.1
2019-03-24T07:59:03.141Z,8.2
2019-03-24T08:00:03.239Z,8.1
2019-03-24T08:01:03.072Z,7.8
2019-03-24T08:02:03.323Z,7.8
2019-03-24T08:03:03.323Z,7.9
2019-03-24T08:04:03.133Z,8
2019-03-24T08:05:03.465Z,8
2019-03-24T08:06:03.807Z,8.3
2019-03-24T08:07:02.896Z,8.4
2019-03-24T08:08:03.111Z,8.5
2019-03-24T08:09:03.312Z,8.5
2019-03-24T08:10:02.916Z,8.6
2019-03-24T08:11:03.210Z,8.6
2019-03-24T08:12:03.097Z,8.6
2019-03-24T08:13:03.123Z,8.7
2019-03-24T08:14:02.746Z,8.4
2019-03-24T08:15:02.877Z,8.5
2019-03-24T08:16:03.324Z,8.5
2019-03-24T08:17:03.809Z,8.9
2019-03-24T08:18:02.956Z,9.1
2019-03-24T08:19:02.898Z,9.3
2019-03-24T08:20:03.266Z,9.6
2019-03-24T08:21:02.909Z,9.3
2019-03-24T08:22:03.150Z,9.3
2019-03-24T08:23:02.716Z,9.3
2019-03-24T08:24:02.786Z,9.6
2019-03-24T08:25:03.019Z,9.8
2019-03-24T08:26:02.898Z,9.8
2019-03-24T08:27:03.714Z,9.6
2019-03-24T08:28:03.629Z,9.6
2019-03-24T08:29:02.877Z,9.6
2019-03-24T08:30:03.740Z,9.8
2019-03-24T08:31:03.485Z,9.9
2019-03-24T08:32:03.781Z,10
2019-03-24T08:33:03.723Z,10
2019-03-24T08:34:03.672Z,9.6
2019-03-24T08:35:03.819Z,9.7
2019-03-24T08:36:03.517Z,9.7
2019-03-24T08:37:03.843Z,9.9
2019-03-24T08:38:03.162Z,10.1
2019-03-24T08:39:03.841Z,10.1
2019-03-24T08:40:03.506Z,10.2
2019-03-24T08:41:02.881Z,10.3
2019-03-24T08:42:03.802Z,10.3
2019-03-24T08:43:03.619Z,10.4
2019-03-24T08:44:03.830Z,10.7
2019-03-24T08:45:03.697Z,10.8
2019-03-24T08:46:02.607Z,10.7
2019-03-24T08:47:03.642Z,10.6
2019-03-24T08:48:03.355Z,10.9
2019-03-24T08:49:03.544Z,11.1
2019-03-24T08:50:03.549Z,11.4
2019-03-24T08:51:03.232Z,11.4
2019-03-24T08:52:03.452Z,11.5
2019-03-24T08:53:03.833Z,11.3
2019-03-24T08:54:03.371Z,10.8
2019-03-24T08:55:03.277Z,10.7
2019-03-24T08:56:03.321Z,10.9
2019-03-24T08:57:03.858Z,11.2
2019-03-24T08:58:02.073Z,11.3
2019-03-24T08:59:03.005Z,11.2
2019-03-24T09:00:04.270Z,11.5
2019-03-24T09:01:03.502Z,11.3
2019-03-24T09:02:03.189Z,11.5
2019-03-24T09:03:03.354Z,11.5
2019-03-24T09:04:03.369Z,11.6
2019-03-24T09:05:03.286Z,12
2019-03-24T09:06:02.964Z,12.1
2019-03-24T09:07:03.054Z,12
2019-03-24T09:08:03.515Z,11.7
2019-03-24T09:09:03.034Z,12.1
2019-03-24T09:10:02.807Z,12.1
2019-03-24T09:11:03.095Z,12.4
2019-03-24T09:12:03.044Z,12.4
2019-03-24T09:13:03.058Z,12.6
2019-03-24T09:14:03.079Z,12.6
2019-03-24T09:15:02.929Z,12.4
2019-03-24T09:16:03.145Z,12
2019-03-24T09:17:03.118Z,11.9
2019-03-24T09:18:03.047Z,11.7
2019-03-24T09:19:03.710Z,11.8
2019-03-24T09:20:03.078Z,12.1
2019-03-24T09:21:02.769Z,12.2
2019-03-24T09:22:02.787Z,12
2019-03-24T09:23:02.800Z,12.2
2019-03-24T09:24:03.883Z,12.4
2019-03-24T09:25:03.013Z,12.6
2019-03-24T09:26:03.416Z,12.5
2019-03-24T09:27:02.993Z,12.5
2019-03-24T09:28:02.980Z,12.4
2019-03-24T09:29:02.884Z,12.3
2019-03-24T09:30:04.035Z,12.1
2019-03-24T09:31:03.289Z,12.4
2019-03-24T09:32:03.586Z,12.4
2019-03-24T09:33:03.554Z,12.3
2019-03-24T09:34:03.575Z,12.3
2019-03-24T09:35:03.657Z,13
2019-03-24T09:36:03.426Z,13.5
2019-03-24T09:37:03.532Z,13.7
2019-03-24T09:38:03.485Z,13.7
2019-03-24T09:39:03.722Z,12.9
2019-03-24T09:40:03.408Z,12.9
2019-03-24T09:41:03.573Z,13.1
2019-03-24T09:42:03.452Z,13.4
2019-03-24T09:43:03.397Z,13.4
2019-03-24T09:44:03.334Z,13.9
2019-03-24T09:45:03.214Z,14.3
2019-03-24T09:46:03.279Z,14.4
2019-03-24T09:47:03.275Z,14.6
2019-03-24T09:48:03.310Z,14.3
2019-03-24T09:49:03.692Z,13.9
2019-03-24T09:50:03.233Z,13.4
2019-03-24T09:51:03.994Z,13.7
2019-03-24T09:52:03.360Z,13.7
2019-03-24T09:53:03.380Z,13.9
2019-03-24T09:54:03.321Z,14.4
2019-03-24T09:55:03.547Z,14.7
2019-03-24T09:56:03.266Z,14.3
2019-03-24T09:57:03.133Z,14.2
2019-03-24T09:58:03.228Z,14.1
2019-03-24T09:59:03.052Z,14.3
2019-03-24T10:00:03.143Z,14.5
2019-03-24T10:01:02.959Z,14.8
2019-03-24T10:02:03.148Z,15.1
2019-03-24T10:03:03.277Z,15.3
2019-03-24T10:04:03.140Z,15.7
2019-03-24T10:05:02.999Z,15.3
2019-03-24T10:06:03.077Z,15.4
2019-03-24T10:07:03.067Z,15.5
2019-03-24T10:08:03.151Z,15.6
2019-03-24T10:09:03.064Z,15.4
2019-03-24T10:10:03.447Z,15.5
2019-03-24T10:11:02.991Z,15.3
2019-03-24T10:12:03.176Z,15.7
2019-03-24T10:13:03.019Z,15.4
2019-03-24T10:14:02.751Z,15.9
2019-03-24T10:15:03.139Z,16.1
2019-03-24T10:16:03.647Z,16.1
2019-03-24T10:17:03.162Z,16.1
2019-03-24T10:18:02.919Z,16.1
2019-03-24T10:19:14.601Z,15.6
2019-03-24T10:20:03.761Z,15.3
2019-03-24T10:21:03.757Z,14.6
2019-03-24T10:22:02.928Z,14.9
2019-03-24T10:23:02.836Z,14.8
2019-03-24T10:24:02.759Z,14.8
2019-03-24T10:25:03.440Z,14.9
2019-03-24T10:26:03.938Z,15.5
2019-03-24T10:27:03.386Z,16
2019-03-24T10:28:03.466Z,16.4
2019-03-24T10:29:03.462Z,16.6
2019-03-24T10:30:03.572Z,16.7
2019-03-24T10:31:03.496Z,16.6
2019-03-24T10:32:03.381Z,16.6
2019-03-24T10:33:03.455Z,16.8
2019-03-24T10:34:03.604Z,17
2019-03-24T10:35:03.489Z,16.7
2019-03-24T10:36:03.645Z,16.7
2019-03-24T10:37:03.536Z,16.9
2019-03-24T10:38:03.207Z,16.9
2019-03-24T10:39:03.474Z,16.9
2019-03-24T10:40:03.405Z,16.4
2019-03-24T10:41:03.461Z,15.9
2019-03-24T10:42:03.304Z,15.9
2019-03-24T10:43:03.584Z,16.1
2019-03-24T10:44:03.378Z,16.1
2019-03-24T10:45:03.330Z,17
2019-03-24T10:46:03.326Z,17.1
2019-03-24T10:47:03.488Z,16.8
2019-03-24T10:48:03.240Z,16.3
2019-03-24T10:49:03.201Z,16.1
2019-03-24T10:50:03.432Z,16.7
2019-03-24T10:51:03.092Z,16.8
2019-03-24T10:52:03.163Z,16.8
2019-03-24T10:53:03.043Z,16.5
2019-03-24T10:54:03.017Z,16.5
2019-03-24T10:55:02.902Z,16.6
2019-03-24T10:56:02.986Z,16.5
2019-03-24T10:57:02.602Z,16.1
2019-03-24T10:58:03.329Z,16.6
2019-03-24T10:59:03.850Z,16.6
2019-03-24T11:00:03.157Z,16.4
2019-03-24T11:01:03.198Z,16.5
2019-03-24T11:02:02.978Z,16.8
2019-03-24T11:03:02.909Z,16.8
2019-03-24T11:04:03.828Z,16.7
2019-03-24T11:05:02.921Z,16.4
2019-03-24T11:06:02.833Z,16.4
2019-03-24T11:07:02.947Z,16.3
2019-03-24T11:08:03.701Z,16.5
2019-03-24T11:09:03.734Z,16.8
2019-03-24T11:10:02.661Z,16.9
2019-03-24T11:11:03.978Z,16.8
2019-03-24T11:12:03.778Z,16.8
2019-03-24T11:13:03.856Z,16.8
2019-03-24T11:14:03.530Z,16.7
2019-03-24T11:15:03.741Z,16.6
2019-03-24T11:16:03.781Z,16.6
2019-03-24T11:17:03.576Z,17.1
2019-03-24T11:18:03.694Z,16.8
2019-03-24T11:19:02.575Z,16.6
2019-03-24T11:20:03.459Z,16.3
2019-03-24T11:21:03.588Z,16.4
2019-03-24T11:22:03.752Z,16.7
2019-03-24T11:23:03.555Z,16.4
2019-03-24T11:24:03.545Z,16.5
2019-03-24T11:25:03.688Z,16.6
2019-03-24T11:26:03.669Z,16.8
2019-03-24T11:27:03.434Z,16.7
2019-03-24T11:28:03.594Z,16.8
2019-03-24T11:29:03.805Z,17.1
2019-03-24T11:30:03.788Z,17.4
2019-03-24T11:31:03.498Z,17.2
2019-03-24T11:32:03.508Z,17.5
2019-03-24T11:33:03.373Z,17.4
2019-03-24T11:34:03.472Z,17
2019-03-24T11:35:02.752Z,16.8
2019-03-24T11:36:03.598Z,16.8
2019-03-24T11:37:03.794Z,16.8
2019-03-24T11:38:03.538Z,16.8
2019-03-24T11:39:03.627Z,16.8
2019-03-24T11:40:03.438Z,16.9
2019-03-24T11:41:03.600Z,16.7
2019-03-24T11:42:03.250Z,16.9
2019-03-24T11:43:03.678Z,16.9
2019-03-24T11:44:03.446Z,17.4
2019-03-24T11:45:03.659Z,17.1
2019-03-24T11:46:03.459Z,17.1
2019-03-24T11:47:03.329Z,16.9
2019-03-24T11:48:03.288Z,16.9
2019-03-24T11:49:03.611Z,16.9
2019-03-24T11:50:03.393Z,17.2
2019-03-24T11:51:03.591Z,16.9
2019-03-24T11:52:03.499Z,16.9
2019-03-24T11:53:03.332Z,17.6
2019-03-24T11:54:03.262Z,17.4
2019-03-24T11:55:03.409Z,17.1
2019-03-24T11:56:03.154Z,17.5
2019-03-24T11:57:03.118Z,17.6
2019-03-24T11:58:06.549Z,17.8
2019-03-24T11:59:03.150Z,17.7
2019-03-24T12:00:02.918Z,17.6
2019-03-24T12:01:03.109Z,17.4
2019-03-24T12:02:03.070Z,17.5
2019-03-24T12:03:03.276Z,17.4
2019-03-24T12:04:02.956Z,17.2
2019-03-24T12:05:03.463Z,17.2
2019-03-24T12:06:15.190Z,17.8
2019-03-24T12:07:03.229Z,17.9
2019-03-24T12:08:03.232Z,17.6
2019-03-24T12:09:03.033Z,17.8
2019-03-24T12:10:03.237Z,17.7
2019-03-24T12:11:03.067Z,17.8
2019-03-24T12:12:03.339Z,17.4
2019-03-24T12:13:03.266Z,17.5
2019-03-24T12:14:03.144Z,17.4
2019-03-24T12:15:05.676Z,17.8
2019-03-24T12:16:03.085Z,18
2019-03-24T12:17:02.958Z,17.8
2019-03-24T12:18:03.633Z,17.6
2019-03-24T12:19:02.965Z,17.7
2019-03-24T12:20:03.525Z,17.8
2019-03-24T12:21:03.057Z,17.6
2019-03-24T12:22:02.986Z,17.9
2019-03-24T12:23:03.293Z,17.8
2019-03-24T12:24:03.241Z,17.8
2019-03-24T12:25:02.848Z,17.8
2019-03-24T12:26:03.046Z,17.6
2019-03-24T12:27:03.059Z,17.6
2019-03-24T12:28:03.043Z,17.6
2019-03-24T12:29:03.201Z,17.6
2019-03-24T12:30:02.800Z,17.6
2019-03-24T12:31:03.093Z,17.6
2019-03-24T12:32:02.991Z,17.6
2019-03-24T12:33:03.160Z,17.4
2019-03-24T12:34:03.856Z,17.1
2019-03-24T12:35:03.048Z,17.3
2019-03-24T12:36:03.021Z,17.2
2019-03-24T12:37:03.088Z,17.3
2019-03-24T12:38:02.909Z,17.3
2019-03-24T12:39:03.722Z,17.4
2019-03-24T12:40:03.299Z,17.4
2019-03-24T12:41:03.819Z,17.7
2019-03-24T12:42:03.608Z,18
2019-03-24T12:43:03.811Z,17.6
2019-03-24T12:44:02.873Z,17.6
2019-03-24T12:45:03.771Z,17.8
2019-03-24T12:46:03.821Z,17.6
2019-03-24T12:47:02.897Z,17.7
2019-03-24T12:48:02.976Z,17.9
2019-03-24T12:49:03.600Z,17.8
2019-03-24T12:50:10.291Z,17.8
2019-03-24T12:51:02.837Z,17.6
2019-03-24T12:52:03.612Z,17.6
2019-03-24T12:53:03.680Z,17.5
2019-03-24T12:54:03.623Z,17.5
2019-03-24T12:55:03.598Z,17.8
2019-03-24T12:56:02.323Z,17.6
2019-03-24T12:57:03.431Z,17.6
2019-03-24T12:58:03.637Z,17.6
2019-03-24T12:59:03.629Z,17.6
2019-03-24T13:00:03.470Z,17.5
2019-03-24T13:01:03.788Z,17.2
2019-03-24T13:02:03.668Z,17.1
2019-03-24T13:03:03.491Z,17.3
2019-03-24T13:04:03.602Z,17.4
2019-03-24T13:05:02.792Z,17.3
2019-03-24T13:06:03.692Z,17.2
2019-03-24T13:07:02.877Z,17.4
2019-03-24T13:08:05.477Z,17.5
2019-03-24T13:09:03.666Z,17.7
2019-03-24T13:10:03.863Z,17.8
2019-03-24T13:11:03.773Z,18
2019-03-24T13:12:03.803Z,18
2019-03-24T13:13:03.818Z,17.8
2019-03-24T13:14:03.771Z,17.9
2019-03-24T13:15:03.766Z,17.7
2019-03-24T13:16:03.546Z,17.6
2019-03-24T13:17:03.036Z,17.7
2019-03-24T13:18:03.573Z,18
2019-03-24T13:19:03.718Z,18.1
2019-03-24T13:20:03.636Z,18.3
2019-03-24T13:21:03.341Z,18.2
2019-03-24T13:22:03.682Z,18.1
2019-03-24T13:23:03.321Z,18.1
2019-03-24T13:24:03.534Z,18.1
2019-03-24T13:25:03.562Z,18
2019-03-24T13:26:03.471Z,17.9
2019-03-24T13:27:03.643Z,17.7
2019-03-24T13:28:03.601Z,17.5
2019-03-24T13:29:03.259Z,17.4
2019-03-24T13:30:03.222Z,17.6
2019-03-24T13:31:03.427Z,17.4
2019-03-24T13:32:03.278Z,17.6
2019-03-24T13:33:03.353Z,17.7
2019-03-24T13:34:03.422Z,17.8
2019-03-24T13:35:02.825Z,17.9
2019-03-24T13:36:03.358Z,17.4
2019-03-24T13:37:04.512Z,17.3
2019-03-24T13:38:03.051Z,17.4